Time;durP1;ratioP1;P1;durP2;ratioP2;P2;SDS_P1;SDS_P2;PMS_P1;PMS_P2;Temp;Humidity;BMP_temperature;BMP_pressure;BME280_temperature;BME280_humidity;BME280_pressure;Samples;Min_cycle;Max_cycle;Signal;HPM_P1;HPM_P2
2022/12/05 00:00:30;;;;;;;43.10;20.35;;;6.70;99.90;;;;;;5122477;27;20117;-70
2022/12/05 00:02:56;;;;;;;38.15;19.38;;;6.70;99.90;;;;;;5139351;27;20406;-71
2022/12/05 00:05:22;;;;;;;44.72;19.90;;;6.70;99.90;;;;;;5139607;27;20071;-69
2022/12/05 00:07:47;;;;;;;41.42;19.63;;;6.60;99.90;;;;;;5139555;27;20039;-69
2022/12/05 00:10:14;;;;;;;38.22;19.38;;;6.50;99.90;;;;;;5121070;27;20105;-70
2022/12/05 00:12:40;;;;;;;41.38;19.23;;;6.60;99.90;;;;;;5139370;27;20043;-70
2022/12/05 00:15:08;;;;;;;37.90;19.98;;;6.70;99.90;;;;;;5139142;27;20145;-70
2022/12/05 00:17:34;;;;;;;43.63;20.30;;;6.70;99.90;;;;;;5139260;27;20046;-70
2022/12/05 00:19:59;;;;;;;40.92;19.85;;;6.80;99.90;;;;;;5120945;27;20130;-70
2022/12/05 00:22:25;;;;;;;40.55;19.00;;;6.80;99.90;;;;;;5139101;27;20431;-70
2022/12/05 00:24:51;;;;;;;39.95;19.40;;;6.80;99.90;;;;;;5138450;27;20043;-69
2022/12/05 00:27:17;;;;;;;41.08;20.42;;;6.70;99.90;;;;;;5138796;27;20042;-69
2022/12/05 00:29:42;;;;;;;42.55;20.30;;;6.80;99.90;;;;;;5121119;27;20050;-69
2022/12/05 00:32:08;;;;;;;40.45;20.52;;;6.60;99.90;;;;;;5120637;27;20424;-70
2022/12/05 00:34:34;;;;;;;46.63;21.58;;;6.60;99.90;;;;;;5138883;27;20035;-69
2022/12/05 00:36:59;;;;;;;44.47;21.80;;;6.70;99.90;;;;;;5120727;27;20043;-69
2022/12/05 00:39:25;;;;;;;47.25;21.38;;;6.60;99.90;;;;;;5103509;27;20122;-70
2022/12/05 00:41:51;;;;;;;51.15;22.75;;;6.70;99.90;;;;;;5138529;27;20050;-69
2022/12/05 00:44:19;;;;;;;48.58;22.13;;;6.80;99.90;;;;;;5138696;27;20381;-70
2022/12/05 00:46:45;;;;;;;43.35;20.55;;;6.90;99.90;;;;;;5120831;27;20130;-69
2022/12/05 00:49:11;;;;;;;44.17;21.33;;;6.90;99.90;;;;;;5120454;27;20455;-69
2022/12/05 00:51:39;;;;;;;42.35;20.52;;;7.10;99.90;;;;;;5138360;27;20058;-70
2022/12/05 00:54:08;;;;;;;40.95;21.42;;;7.20;99.90;;;;;;5138242;27;20035;-71
2022/12/05 00:56:34;;;;;;;44.95;23.17;;;7.20;99.90;;;;;;5138155;27;20032;-71
2022/12/05 00:59:01;;;;;;;42.25;21.55;;;7.10;99.90;;;;;;5138449;27;20042;-70
2022/12/05 01:01:31;;;;;;;44.22;21.73;;;7.10;99.90;;;;;;5138474;27;20413;-70
2022/12/05 01:04:01;;;;;;;48.75;22.00;;;7.20;99.90;;;;;;5120380;27;20034;-70
2022/12/05 01:06:27;;;;;;;48.70;22.15;;;7.20;99.90;;;;;;5138284;27;20038;-70
2022/12/05 01:08:55;;;;;;;47.53;23.02;;;7.30;99.90;;;;;;5119910;27;20435;-70
2022/12/05 01:11:22;;;;;;;52.40;23.92;;;7.30;99.90;;;;;;5119975;27;20035;-70
2022/12/05 01:13:48;;;;;;;53.28;25.08;;;7.20;99.90;;;;;;5138026;27;20031;-70
2022/12/05 01:16:16;;;;;;;53.10;23.80;;;7.30;99.90;;;;;;5137960;27;20039;-70
2022/12/05 01:18:42;;;;;;;52.53;23.77;;;7.30;99.90;;;;;;5137915;27;20039;-70
2022/12/05 01:21:09;;;;;;;50.80;24.45;;;7.10;99.90;;;;;;5137878;27;20072;-70
2022/12/05 01:23:34;;;;;;;43.13;22.30;;;7.30;99.90;;;;;;5137707;27;20050;-70
2022/12/05 01:26:05;;;;;;;48.58;22.73;;;7.20;99.90;;;;;;5102278;27;20043;-70
2022/12/05 01:28:31;;;;;;;44.85;22.27;;;7.20;99.90;;;;;;5137767;27;20035;-70
2022/12/05 01:30:57;;;;;;;47.92;22.55;;;7.20;99.90;;;;;;5119869;27;20054;-70
2022/12/05 01:33:23;;;;;;;41.85;21.63;;;7.30;99.90;;;;;;5137770;27;20031;-70
2022/12/05 01:35:48;;;;;;;51.88;22.65;;;7.20;99.90;;;;;;5119929;27;20448;-70
2022/12/05 01:38:14;;;;;;;42.35;21.27;;;7.20;99.90;;;;;;5119745;27;20354;-69
2022/12/05 01:40:40;;;;;;;42.60;21.70;;;7.30;99.90;;;;;;5119503;27;20714;-70
2022/12/05 01:43:17;;;;;;;37.72;19.98;;;7.40;99.90;;;;;;5119711;28;20058;-69
2022/12/05 01:45:45;;;;;;;40.80;21.02;;;7.40;99.90;;;;;;5137659;27;20043;-69
2022/12/05 01:48:18;;;;;;;42.28;21.38;;;7.40;99.90;;;;;;5119304;27;20055;-70
2022/12/05 01:50:45;;;;;;;41.53;20.95;;;7.50;99.90;;;;;;5137575;27;20031;-69
2022/12/05 01:53:11;;;;;;;41.85;21.08;;;7.50;99.90;;;;;;5137852;28;20035;-69
2022/12/05 01:55:37;;;;;;;36.10;19.33;;;7.40;99.90;;;;;;5102101;28;20043;-70
2022/12/05 01:58:05;;;;;;;40.53;21.27;;;7.40;99.90;;;;;;5137464;28;20323;-70
2022/12/05 02:00:31;;;;;;;36.17;19.30;;;7.40;99.90;;;;;;5137741;28;20039;-69
2022/12/05 02:03:03;;;;;;;33.47;18.63;;;7.30;99.90;;;;;;5137433;27;20378;-71
2022/12/05 02:05:31;;;;;;;31.42;17.73;;;7.40;99.90;;;;;;5122913;27;20391;-70
2022/12/05 02:08:00;;;;;;;31.13;17.75;;;7.30;99.90;;;;;;5141527;27;20416;-70
2022/12/05 02:10:29;;;;;;;30.98;18.13;;;7.40;99.90;;;;;;5141674;27;20035;-70
2022/12/05 02:13:00;;;;;;;30.67;17.27;;;7.40;99.90;;;;;;5141494;27;20101;-70
2022/12/05 02:15:48;;;;;;;28.48;17.20;;;7.30;99.90;;;;;;5123529;27;20046;-70
2022/12/05 02:18:51;;;;;;;30.42;16.77;;;7.40;99.90;;;;;;5141962;27;20123;-70
2022/12/05 02:21:28;;;;;;;31.42;17.10;;;7.40;99.90;;;;;;5141401;27;20035;-69
2022/12/05 02:24:15;;;;;;;34.65;18.00;;;7.40;99.90;;;;;;5141569;27;20112;-69
2022/12/05 02:26:40;;;;;;;;;;;7.40;99.90;;;;;;5141728;27;20054;-69
2022/12/05 02:29:12;;;;;;;27.23;15.67;;;7.30;99.90;;;;;;5123357;27;19915;-70
2022/12/05 02:31:47;;;;;;;26.92;15.07;;;7.30;99.90;;;;;;5141371;27;20327;-69
2022/12/05 02:34:34;;;;;;;26.27;16.63;;;7.30;99.90;;;;;;5141254;27;20039;-70
2022/12/05 02:37:11;;;;;;;30.05;15.90;;;7.10;99.90;;;;;;5141656;27;20031;-69
2022/12/05 02:39:40;;;;;;;25.52;15.25;;;7.00;99.90;;;;;;5122895;27;20047;-69
2022/12/05 02:42:17;;;;;;;28.75;16.50;;;7.10;99.90;;;;;;5123207;27;20143;-69
2022/12/05 02:45:11;;;;;;;26.70;15.63;;;7.20;99.90;;;;;;5140633;27;20050;-70
2022/12/05 02:47:42;;;;;;;30.45;17.10;;;7.20;99.90;;;;;;5121766;27;20073;-69
2022/12/05 02:50:11;;;;;;;27.60;17.02;;;7.20;99.90;;;;;;5122887;27;20050;-69
2022/12/05 02:52:37;;;;;;;24.35;14.93;;;7.10;99.90;;;;;;5140563;27;20035;-69
2022/12/05 02:55:04;;;;;;;28.90;16.10;;;7.10;99.90;;;;;;5121953;27;20058;-70
2022/12/05 02:57:30;;;;;;;26.35;16.50;;;7.10;99.90;;;;;;5122430;27;20420;-70
2022/12/05 02:59:56;;;;;;;28.52;16.10;;;7.10;99.90;;;;;;5122859;27;20035;-69
2022/12/05 03:02:30;;;;;;;25.00;17.20;;;7.10;99.90;;;;;;5122551;27;20420;-70
2022/12/05 03:05:05;;;;;;;23.55;15.63;;;7.20;99.90;;;;;;5122589;27;20092;-70
2022/12/05 03:07:32;;;;;;;25.13;14.77;;;7.00;99.90;;;;;;5140513;27;20092;-70
2022/12/05 03:10:03;;;;;;;22.67;15.38;;;7.00;99.90;;;;;;5140311;27;20498;-70
2022/12/05 03:12:36;;;;;;;25.55;16.52;;;7.00;99.90;;;;;;5122324;27;20490;-70
2022/12/05 03:15:15;;;;;;;33.88;16.88;;;7.00;99.90;;;;;;5140295;27;20043;-70
2022/12/05 03:17:48;;;;;;;26.33;15.32;;;7.00;99.90;;;;;;5140353;27;20088;-70
2022/12/05 03:20:28;;;;;;;23.00;15.95;;;7.00;99.90;;;;;;5122257;27;20358;-70
2022/12/05 03:23:23;;;;;;;26.67;16.02;;;7.10;99.90;;;;;;5140313;27;20047;-70
2022/12/05 03:26:19;;;;;;;22.08;15.82;;;7.10;99.90;;;;;;5137792;27;20075;-70
2022/12/05 03:29:03;;;;;;;23.05;14.20;;;7.10;99.90;;;;;;5140039;27;20051;-69
2022/12/05 03:31:57;;;;;;;26.08;15.82;;;6.90;99.90;;;;;;5140050;27;20088;-70
2022/12/05 03:34:36;;;;;;;24.95;15.45;;;6.90;99.90;;;;;;5140243;27;20122;-69
2022/12/05 03:37:08;;;;;;;24.90;16.10;;;6.80;99.90;;;;;;5139986;27;20062;-70
2022/12/05 03:39:38;;;;;;;23.85;14.70;;;7.00;99.90;;;;;;5122029;27;20035;-70
2022/12/05 03:42:17;;;;;;;20.70;13.80;;;7.00;99.90;;;;;;5140106;27;20039;-70
2022/12/05 03:44:53;;;;;;;26.95;14.80;;;6.90;99.90;;;;;;5140034;27;20070;-70
2022/12/05 03:47:55;;;;;;;23.38;15.07;;;7.00;99.90;;;;;;5139499;27;20082;-70
2022/12/05 03:50:28;;;;;;;22.83;14.13;;;7.10;99.90;;;;;;5121576;27;20447;-69
2022/12/05 03:53:00;;;;;;;22.58;13.30;;;7.00;99.90;;;;;;5121328;27;20047;-70
2022/12/05 03:55:30;;;;;;;25.88;14.60;;;7.00;99.90;;;;;;5139252;27;20042;-70
2022/12/05 03:58:05;;;;;;;26.65;16.02;;;6.90;99.90;;;;;;5121291;27;20732;-70
2022/12/05 04:00:35;;;;;;;21.95;14.25;;;7.00;99.90;;;;;;5121398;27;20424;-70
2022/12/05 04:03:07;;;;;;;23.15;14.55;;;7.00;99.90;;;;;;5139502;27;20038;-69
2022/12/05 04:05:42;;;;;;;24.80;14.93;;;7.00;99.90;;;;;;5139513;27;20046;-69
2022/12/05 04:08:23;;;;;;;24.23;15.20;;;6.90;99.90;;;;;;5139213;27;20122;-70
2022/12/05 04:10:52;;;;;;;19.83;13.57;;;7.00;99.90;;;;;;5139448;27;20122;-69
2022/12/05 04:13:23;;;;;;;23.60;14.25;;;7.00;99.90;;;;;;5121292;27;20035;-70
2022/12/05 04:19:20;;;;;;;23.42;13.38;;;6.90;99.90;;;;;;5138981;27;20499;-70
2022/12/05 04:21:51;;;;;;;26.58;13.80;;;7.00;99.90;;;;;;5095647;27;20058;-69
2022/12/05 04:27:11;;;;;;;25.00;14.93;;;7.10;99.90;;;;;;5138076;27;20058;-69
2022/12/05 04:29:53;;;;;;;24.98;13.73;;;6.90;99.90;;;;;;5138954;27;20070;-70
2022/12/05 04:32:23;;;;;;;20.92;13.38;;;6.90;99.90;;;;;;5138925;27;20043;-70
2022/12/05 04:34:56;;;;;;;25.00;14.48;;;7.00;99.90;;;;;;5121574;27;20034;-71
2022/12/05 04:37:25;;;;;;;31.83;15.23;;;7.00;99.90;;;;;;5138786;27;20111;-70
2022/12/05 04:40:00;;;;;;;31.38;15.48;;;6.90;99.90;;;;;;5138987;27;20095;-70
2022/12/05 04:42:29;;;;;;;25.05;14.23;;;7.00;99.90;;;;;;5138675;27;20167;-69
2022/12/05 04:45:02;;;;;;;25.83;13.77;;;7.00;99.90;;;;;;5103546;27;20076;-70
2022/12/05 04:47:34;;;;;;;27.60;14.85;;;6.90;99.90;;;;;;5138441;27;20152;-69
2022/12/05 04:50:02;;;;;;;29.38;15.82;;;6.90;99.90;;;;;;5138612;27;20046;-69
2022/12/05 04:52:29;;;;;;;23.17;14.23;;;7.00;99.90;;;;;;5120578;27;20035;-69
2022/12/05 04:55:15;;;;;;;32.42;16.42;;;7.20;99.90;;;;;;5120017;27;20035;-70
2022/12/05 04:57:50;;;;;;;24.70;14.95;;;7.20;99.90;;;;;;5138712;27;20445;-70
2022/12/05 05:00:16;;;;;;;31.33;15.93;;;7.20;99.90;;;;;;5138250;27;20035;-69
2022/12/05 05:02:49;;;;;;;30.23;15.70;;;7.20;99.90;;;;;;5138440;27;20041;-69
2022/12/05 05:05:18;;;;;;;23.45;13.90;;;7.20;99.90;;;;;;5120184;27;20118;-69
2022/12/05 05:07:49;;;;;;;26.90;14.90;;;7.10;99.90;;;;;;5138007;27;20485;-70
2022/12/05 05:10:21;;;;;;;24.80;15.15;;;7.10;99.90;;;;;;5138154;27;20432;-69
2022/12/05 05:12:47;;;;;;;31.35;16.40;;;7.00;99.90;;;;;;5137948;27;20047;-70
2022/12/05 05:15:12;;;;;;;25.38;14.48;;;7.10;99.90;;;;;;5138185;27;20379;-71
2022/12/05 05:17:38;;;;;;;30.00;15.48;;;7.10;99.90;;;;;;5137923;27;20042;-70
2022/12/05 05:20:22;;;;;;;26.55;15.05;;;7.10;99.90;;;;;;5137826;27;20035;-70
2022/12/05 05:22:50;;;;;;;29.67;15.40;;;7.00;99.90;;;;;;5138232;27;20088;-70
2022/12/05 05:25:16;;;;;;;26.50;14.98;;;7.10;99.90;;;;;;5137422;27;20084;-70
2022/12/05 05:27:41;;;;;;;32.97;15.57;;;7.10;99.90;;;;;;5138133;27;20070;-70
2022/12/05 05:30:08;;;;;;;30.63;15.95;;;7.10;99.90;;;;;;5120035;27;20070;-70
2022/12/05 05:32:34;;;;;;;26.60;14.07;;;7.00;99.90;;;;;;5137779;27;20035;-70
2022/12/05 05:34:59;;;;;;;32.78;15.98;;;7.00;99.90;;;;;;5137582;27;20038;-70
2022/12/05 05:37:25;;;;;;;23.08;14.25;;;7.10;99.90;;;;;;5137881;27;20031;-70
2022/12/05 05:39:51;;;;;;;26.65;14.68;;;7.10;99.90;;;;;;5136994;27;20031;-70
2022/12/05 05:42:17;;;;;;;25.20;14.23;;;7.20;99.90;;;;;;5137937;27;20095;-69
2022/12/05 05:44:42;;;;;;;27.88;14.13;;;7.10;99.90;;;;;;5137539;27;20071;-69
2022/12/05 05:47:08;;;;;;;26.08;13.90;;;7.20;99.90;;;;;;5137615;27;20063;-69
2022/12/05 05:49:33;;;;;;;26.17;13.93;;;7.20;99.90;;;;;;5137753;27;20039;-69
2022/12/05 05:51:59;;;;;;;22.98;13.18;;;7.10;99.90;;;;;;5137449;27;20043;-70
2022/12/05 05:54:25;;;;;;;22.75;13.95;;;7.10;99.90;;;;;;5137488;28;20047;-70
2022/12/05 05:56:50;;;;;;;22.58;12.85;;;7.10;99.90;;;;;;5137317;28;20119;-69
2022/12/05 05:59:16;;;;;;;22.35;12.27;;;7.20;99.90;;;;;;5102393;28;20071;-70
2022/12/05 06:01:42;;;;;;;25.52;13.43;;;7.10;99.90;;;;;;5137426;28;20436;-70
2022/12/05 06:04:07;;;;;;;25.73;13.43;;;7.10;99.90;;;;;;5119362;28;20121;-70
2022/12/05 06:06:33;;;;;;;24.08;12.75;;;7.20;99.90;;;;;;5137576;28;20047;-70
2022/12/05 06:09:04;;;;;;;26.52;13.93;;;7.10;99.90;;;;;;5137210;28;20103;-72
2022/12/05 06:11:30;;;;;;;31.02;14.52;;;7.10;99.90;;;;;;5137507;28;20038;-70
2022/12/05 06:13:59;;;;;;;21.35;12.27;;;7.10;99.90;;;;;;5102174;28;20122;-70
2022/12/05 06:16:25;;;;;;;24.48;13.23;;;7.20;99.90;;;;;;5137348;28;20039;-70
2022/12/05 06:18:51;;;;;;;25.05;13.65;;;7.20;99.90;;;;;;5137232;28;20050;-70
2022/12/05 06:21:17;;;;;;;30.35;14.32;;;7.10;99.90;;;;;;5136517;28;20328;-72
2022/12/05 06:23:44;;;;;;;29.67;14.65;;;7.20;99.90;;;;;;5124613;28;20051;-70
2022/12/05 06:26:13;;;;;;;20.83;12.90;;;7.20;99.90;;;;;;5131598;28;20027;-70
2022/12/05 06:28:39;;;;;;;25.40;13.13;;;7.20;99.90;;;;;;5098949;28;20035;-70
2022/12/05 06:31:07;;;;;;;32.42;14.98;;;7.30;99.90;;;;;;5127574;28;20043;-70
2022/12/05 06:33:33;;;;;;;30.60;15.25;;;7.30;99.90;;;;;;5137176;28;20043;-70
2022/12/05 06:36:04;;;;;;;26.60;14.23;;;7.10;99.90;;;;;;5137050;28;20339;-69
2022/12/05 06:38:30;;;;;;;28.58;14.25;;;7.00;99.90;;;;;;5137526;28;20063;-70
2022/12/05 06:40:55;;;;;;;27.17;15.18;;;7.00;99.90;;;;;;5119078;28;20070;-70
2022/12/05 06:43:21;;;;;;;30.52;14.75;;;7.00;99.90;;;;;;5137141;28;20054;-70
2022/12/05 06:45:46;;;;;;;31.05;13.77;;;7.00;99.90;;;;;;5118984;28;20053;-69
2022/12/05 06:48:12;;;;;;;31.95;15.23;;;7.10;99.90;;;;;;5118835;28;20146;-69
2022/12/05 06:50:38;;;;;;;31.08;13.98;;;7.10;99.90;;;;;;5139090;27;20063;-70
2022/12/05 06:53:03;;;;;;;27.13;14.63;;;7.10;99.90;;;;;;5105577;27;20092;-70
2022/12/05 06:55:29;;;;;;;29.35;15.38;;;7.10;99.90;;;;;;5140602;27;20039;-70
2022/12/05 06:57:55;;;;;;;36.10;14.77;;;7.10;99.90;;;;;;5140955;27;20320;-70
2022/12/05 07:03:10;;;;;;;26.73;13.77;;;7.10;99.90;;;;;;5101841;27;20122;-70
2022/12/05 07:05:35;;;;;;;32.28;14.75;;;7.20;99.90;;;;;;5122488;27;20126;-70
2022/12/05 07:08:01;;;;;;;31.42;15.48;;;7.10;99.90;;;;;;5140573;27;20058;-69
2022/12/05 07:10:27;;;;;;;32.60;15.05;;;7.00;99.90;;;;;;5140542;27;20035;-70
2022/12/05 07:12:52;;;;;;;37.25;15.52;;;7.00;99.90;;;;;;5140412;27;20049;-69
2022/12/05 07:15:18;;;;;;;38.30;16.52;;;7.00;99.90;;;;;;5122244;27;20058;-70
2022/12/05 07:17:44;;;;;;;33.22;15.43;;;7.00;99.90;;;;;;5140413;27;20035;-70
2022/12/05 07:20:11;;;;;;;42.67;16.98;;;7.00;99.90;;;;;;5140124;27;20103;-70
2022/12/05 07:22:37;;;;;;;40.22;17.15;;;7.00;99.90;;;;;;5122390;27;20091;-69
2022/12/05 07:25:03;;;;;;;38.25;15.98;;;6.80;99.90;;;;;;5139787;27;20039;-70
2022/12/05 07:27:29;;;;;;;32.95;15.23;;;6.80;99.90;;;;;;5140292;27;20042;-70
2022/12/05 07:29:55;;;;;;;36.58;16.40;;;6.80;99.90;;;;;;5140173;27;20035;-69
2022/12/05 07:32:21;;;;;;;42.53;15.82;;;7.00;99.90;;;;;;5139800;27;20126;-70
2022/12/05 07:34:46;;;;;;;30.73;15.35;;;7.10;99.90;;;;;;5122178;27;20067;-70
2022/12/05 07:37:12;;;;;;;30.33;14.85;;;7.00;99.90;;;;;;5140091;27;20606;-69
2022/12/05 07:39:38;;;;;;;28.42;14.77;;;7.00;99.90;;;;;;5139915;27;20082;-70
2022/12/05 07:42:04;;;;;;;31.35;14.60;;;6.90;99.90;;;;;;5121703;27;20078;-70
2022/12/05 07:44:30;;;;;;;29.02;14.05;;;7.00;99.90;;;;;;5139917;27;20035;-70
2022/12/05 07:46:56;;;;;;;30.10;13.90;;;7.00;99.90;;;;;;5139797;27;20058;-70
2022/12/05 07:49:22;;;;;;;29.48;15.00;;;7.00;99.90;;;;;;5139645;27;20051;-72
2022/12/05 07:51:48;;;;;;;35.80;15.85;;;7.10;99.90;;;;;;5139621;27;20072;-70
2022/12/05 07:54:13;;;;;;;32.17;15.43;;;7.10;99.90;;;;;;5104372;27;20031;-70
2022/12/05 07:56:39;;;;;;;38.38;16.77;;;7.10;99.90;;;;;;5139158;27;20031;-70
2022/12/05 07:59:04;;;;;;;36.83;16.20;;;7.10;99.90;;;;;;5139735;27;20070;-69
2022/12/05 08:01:30;;;;;;;31.60;15.18;;;7.20;99.90;;;;;;5120450;28;20027;-71
2022/12/05 08:03:58;;;;;;;30.35;14.20;;;7.10;99.90;;;;;;5121160;27;20046;-69
2022/12/05 08:06:27;;;;;;;31.02;14.57;;;7.10;99.90;;;;;;5121284;27;20078;-72
2022/12/05 08:08:53;;;;;;;33.65;15.40;;;7.10;99.90;;;;;;5139406;27;20164;-69
2022/12/05 08:11:28;;;;;;;30.08;15.15;;;7.10;99.90;;;;;;5104290;27;20038;-70
2022/12/05 08:13:55;;;;;;;34.30;15.45;;;7.20;99.90;;;;;;5143095;27;20058;-69
2022/12/05 08:16:23;;;;;;;40.05;15.30;;;7.10;99.90;;;;;;5147098;27;20039;-70
2022/12/05 08:18:57;;;;;;;30.98;15.50;;;7.10;99.90;;;;;;5144167;27;20035;-70
2022/12/05 08:21:24;;;;;;;29.48;13.57;;;7.00;99.90;;;;;;5139562;27;20321;-74
2022/12/05 08:23:50;;;;;;;25.73;12.95;;;7.00;99.90;;;;;;5139384;27;20103;-69
2022/12/05 08:26:19;;;;;;;24.17;13.35;;;7.00;99.90;;;;;;5138774;27;20042;-69
2022/12/05 08:28:46;;;;;;;28.83;13.50;;;7.00;99.90;;;;;;5138771;27;20067;-69
2022/12/05 08:31:16;;;;;;;32.55;14.20;;;7.10;99.90;;;;;;5121044;27;20094;-72
2022/12/05 08:33:42;;;;;;;27.40;13.23;;;7.20;99.90;;;;;;5138959;27;20043;-73
2022/12/05 08:36:12;;;;;;;30.15;14.18;;;7.30;99.90;;;;;;5120729;27;20031;-70
2022/12/05 08:38:38;;;;;;;24.83;13.43;;;7.20;99.90;;;;;;5138794;27;20035;-70
2022/12/05 08:41:09;;;;;;;27.13;12.30;;;7.20;99.90;;;;;;5138698;27;20038;-70
2022/12/05 08:43:35;;;;;;;27.60;12.88;;;7.30;99.90;;;;;;5121338;27;20074;-70
2022/12/05 08:46:02;;;;;;;31.30;13.65;;;7.30;99.90;;;;;;5137822;27;20089;-71
2022/12/05 08:48:29;;;;;;;28.67;13.75;;;7.40;99.90;;;;;;5138409;27;20047;-71
2022/12/05 08:50:55;;;;;;;30.02;12.82;;;7.40;99.90;;;;;;5120760;27;20042;-70
2022/12/05 08:53:21;;;;;;;29.67;14.05;;;7.40;99.90;;;;;;5120316;27;20035;-70
2022/12/05 08:55:46;;;;;;;28.20;13.68;;;7.30;99.90;;;;;;5137996;27;20035;-73
2022/12/05 08:58:12;;;;;;;29.63;13.70;;;7.40;99.90;;;;;;5138360;27;20138;-71
2022/12/05 09:00:39;;;;;;;27.02;14.30;;;7.40;99.90;;;;;;5138398;27;20059;-70
2022/12/05 09:03:04;;;;;;;26.33;12.65;;;7.40;99.90;;;;;;5120076;27;20043;-71
2022/12/05 09:05:30;;;;;;;20.70;12.32;;;7.50;99.90;;;;;;5138406;27;20061;-71
2022/12/05 09:07:58;;;;;;;25.40;12.52;;;7.50;99.90;;;;;;5138439;27;20313;-71
2022/12/05 09:10:24;;;;;;;28.08;13.40;;;7.40;99.90;;;;;;5138030;27;20054;-71
2022/12/05 09:12:50;;;;;;;25.60;13.43;;;7.40;99.90;;;;;;5119982;27;20064;-73
2022/12/05 09:15:16;;;;;;;26.73;13.85;;;7.30;99.90;;;;;;5138401;27;20417;-71
2022/12/05 09:17:42;;;;;;;31.63;13.70;;;7.30;99.90;;;;;;5138512;27;20039;-71
2022/12/05 09:20:10;;;;;;;25.30;13.88;;;7.30;99.90;;;;;;5138095;27;20117;-71
2022/12/05 09:22:36;;;;;;;26.75;13.63;;;7.30;99.90;;;;;;5137796;27;20118;-71
2022/12/05 09:25:03;;;;;;;28.60;13.30;;;7.40;99.90;;;;;;5137961;27;20122;-71
2022/12/05 09:27:29;;;;;;;33.15;14.55;;;7.30;99.90;;;;;;5137561;27;20320;-71
2022/12/05 09:29:54;;;;;;;27.33;14.20;;;7.40;99.90;;;;;;5138129;27;20035;-71
2022/12/05 09:32:20;;;;;;;31.88;13.57;;;7.20;99.90;;;;;;5138001;27;20381;-71
2022/12/05 09:34:46;;;;;;;30.50;13.90;;;7.30;99.90;;;;;;5137753;27;20071;-71
2022/12/05 09:37:12;;;;;;;32.85;15.13;;;7.30;99.90;;;;;;5137691;27;20035;-71
2022/12/05 09:39:37;;;;;;;27.45;12.07;;;7.40;99.90;;;;;;5137678;27;20066;-73
2022/12/05 09:42:19;;;;;;;29.33;14.15;;;7.40;99.90;;;;;;5119543;27;20046;-71
2022/12/05 09:45:03;;;;;;;31.58;15.13;;;7.60;99.90;;;;;;5119423;27;20104;-72
2022/12/05 09:47:48;;;;;;;28.35;13.73;;;7.50;99.90;;;;;;5137477;27;20459;-71
2022/12/05 09:50:33;;;;;;;28.92;12.88;;;7.50;99.90;;;;;;5137505;27;20134;-71
2022/12/05 09:53:18;;;;;;;25.02;12.82;;;7.50;99.90;;;;;;5137482;27;20416;-72
2022/12/05 09:56:19;;;;;;;28.92;14.80;;;7.60;99.90;;;;;;5137418;28;20039;-71
2022/12/05 09:58:49;;;;;;;26.27;13.55;;;7.70;99.90;;;;;;5137602;28;20047;-71
2022/12/05 10:01:30;;;;;;;30.90;13.32;;;7.60;99.90;;;;;;5137484;28;20050;-72
2022/12/05 10:04:26;;;;;;;26.73;13.05;;;7.60;99.90;;;;;;5137323;28;20054;-72
2022/12/05 10:07:02;;;;;;;25.80;12.70;;;7.50;99.90;;;;;;5119319;28;20035;-71
2022/12/05 10:09:47;;;;;;;24.67;14.05;;;7.60;99.90;;;;;;5137727;28;20035;-71
2022/12/05 10:12:31;;;;;;;34.38;14.75;;;7.60;99.90;;;;;;5137224;28;20130;-71
2022/12/05 10:15:27;;;;;;;24.77;13.82;;;7.60;99.90;;;;;;5119432;28;20075;-71
2022/12/05 10:18:02;;;;;;;35.70;14.70;;;7.70;99.90;;;;;;5137501;28;20143;-71
2022/12/05 10:20:40;;;;;;;29.30;14.32;;;7.70;99.90;;;;;;5119039;28;20428;-71
2022/12/05 10:23:15;;;;;;;24.48;13.40;;;7.60;99.90;;;;;;5137562;28;20039;-71
2022/12/05 10:25:41;;;;;;;26.95;14.20;;;7.60;99.90;;;;;;5138617;27;20043;-71
2022/12/05 10:28:54;;;;;;;31.52;15.07;;;7.70;99.90;;;;;;5123094;27;20467;-70
2022/12/05 10:31:26;;;;;;;30.23;13.77;;;7.70;99.90;;;;;;5058054;28;20056;-70
2022/12/05 10:34:05;;;;;;;24.85;13.93;;;7.70;99.90;;;;;;5058056;28;20443;-72
2022/12/05 10:36:31;;;;;;;30.40;13.10;;;7.70;99.90;;;;;;5112828;27;20050;-70
2022/12/05 10:38:58;;;;;;;26.08;12.35;;;7.60;99.90;;;;;;5141193;27;20366;-71
2022/12/05 10:41:24;;;;;;;23.90;11.90;;;7.50;99.90;;;;;;5140975;27;20035;-70
2022/12/05 10:43:50;;;;;;;23.02;12.55;;;7.50;99.90;;;;;;5141167;27;20046;-70
2022/12/05 10:46:16;;;;;;;26.98;13.48;;;7.50;99.90;;;;;;5140838;27;20031;-70
2022/12/05 10:48:45;;;;;;;26.60;12.93;;;7.60;99.90;;;;;;5140759;27;20355;-70
2022/12/05 10:51:26;;;;;;;26.27;12.00;;;7.50;99.90;;;;;;5140958;27;20031;-70
2022/12/05 10:53:53;;;;;;;23.95;12.57;;;7.60;99.90;;;;;;5129938;27;20043;-72
2022/12/05 10:56:45;;;;;;;19.92;12.27;;;7.70;99.90;;;;;;5121756;27;20039;-70
2022/12/05 10:59:14;;;;;;;19.35;11.60;;;7.70;99.90;;;;;;5128407;27;20042;-70
2022/12/05 11:01:48;;;;;;;21.65;11.75;;;7.50;99.90;;;;;;5137127;27;20080;-70
2022/12/05 11:04:30;;;;;;;28.60;13.23;;;7.50;99.90;;;;;;5130805;27;20071;-70
2022/12/05 11:06:59;;;;;;;21.90;12.23;;;7.50;99.90;;;;;;5140769;27;20038;-70
2022/12/05 11:09:37;;;;;;;21.65;12.23;;;7.40;99.90;;;;;;5110413;27;20031;-70
2022/12/05 11:12:22;;;;;;;27.33;12.90;;;7.40;99.90;;;;;;5140387;27;20166;-70
2022/12/05 11:15:24;;;;;;;23.48;11.85;;;7.50;99.90;;;;;;5136746;27;20042;-72
2022/12/05 11:17:51;;;;;;;16.27;10.85;;;7.50;99.90;;;;;;5101514;28;20038;-71
2022/12/05 11:20:17;;;;;;;24.63;12.07;;;7.50;99.90;;;;;;5119553;28;20047;-70
2022/12/05 11:22:44;;;;;;;22.85;11.32;;;7.60;99.90;;;;;;5136171;27;20046;-70
2022/12/05 11:25:31;;;;;;;17.25;10.40;;;7.60;99.90;;;;;;5121987;27;20450;-71
2022/12/05 11:28:00;;;;;;;24.60;12.38;;;7.50;99.90;;;;;;5140187;27;20119;-69
2022/12/05 11:30:28;;;;;;;24.08;11.65;;;7.60;99.90;;;;;;5129773;27;20036;-70
2022/12/05 11:33:20;;;;;;;17.63;10.25;;;7.70;99.90;;;;;;5128118;27;20465;-71
2022/12/05 11:35:52;;;;;;;20.17;10.07;;;7.70;99.90;;;;;;5118689;28;20086;-70
2022/12/05 11:38:21;;;;;;;19.23;10.60;;;7.60;99.90;;;;;;5107878;27;20066;-70
2022/12/05 11:41:24;;;;;;;17.30;10.82;;;7.60;99.90;;;;;;5149365;27;20058;-70
2022/12/05 11:44:05;;;;;;;22.98;10.95;;;7.40;99.90;;;;;;5114677;27;20054;-72
2022/12/05 11:46:41;;;;;;;19.25;10.82;;;7.50;99.90;;;;;;5136756;27;20035;-70
2022/12/05 11:49:16;;;;;;;19.83;10.70;;;7.40;99.90;;;;;;5140573;27;20039;-70
2022/12/05 11:51:53;;;;;;;19.13;10.63;;;7.50;99.90;;;;;;5139279;27;20039;-71
2022/12/05 11:54:31;;;;;;;14.73;8.95;;;7.50;99.90;;;;;;5130091;27;20079;-70
2022/12/05 11:57:02;;;;;;;21.02;10.35;;;7.50;99.90;;;;;;5100351;28;20042;-70
2022/12/05 11:59:34;;;;;;;15.40;9.35;;;7.50;99.90;;;;;;5120791;27;20106;-70
2022/12/05 12:02:24;;;;;;;22.88;10.82;;;7.50;99.90;;;;;;5123834;27;20043;-70
2022/12/05 12:04:50;;;;;;;18.67;11.15;;;7.40;99.90;;;;;;5156437;27;20039;-69
2022/12/05 12:07:42;;;;;;;19.77;10.27;;;7.40;99.90;;;;;;5154981;27;20031;-70
2022/12/05 12:10:30;;;;;;;24.10;12.20;;;7.50;99.90;;;;;;5135789;27;20065;-71
2022/12/05 12:13:16;;;;;;;18.45;11.00;;;7.60;99.90;;;;;;5118674;28;20036;-72
2022/12/05 12:15:43;;;;;;;;;;;7.50;99.90;;;;;;5118980;28;20332;-72
2022/12/05 12:18:21;;;;;;;28.50;13.27;;;7.40;99.90;;;;;;5118994;28;19927;-72
2022/12/05 12:20:55;;;;;;;16.67;9.05;;;7.60;99.90;;;;;;5150039;27;20427;-72
2022/12/05 12:23:45;;;;;;;17.00;9.10;;;7.60;99.90;;;;;;5159761;27;20034;-71
2022/12/05 12:26:35;;;;;;;22.02;9.88;;;7.60;99.90;;;;;;5159074;27;20039;-71
2022/12/05 12:29:13;;;;;;;16.48;9.70;;;7.70;99.90;;;;;;5159844;27;20377;-71
2022/12/05 12:31:50;;;;;;;21.00;10.82;;;7.70;99.90;;;;;;5110234;27;20508;-71
2022/12/05 12:34:34;;;;;;;13.82;8.80;;;7.80;99.90;;;;;;5130409;27;20047;-67
2022/12/05 12:37:02;;;;;;;12.90;8.80;;;7.70;99.90;;;;;;5116969;28;20046;-71
2022/12/05 12:39:52;;;;;;;20.13;10.70;;;7.80;99.90;;;;;;5117991;28;20067;-71
2022/12/05 12:42:46;;;;;;;15.18;9.15;;;7.70;99.90;;;;;;5118368;28;20054;-71
2022/12/05 12:45:39;;;;;;;16.27;9.07;;;7.70;99.90;;;;;;5118151;28;20102;-71
2022/12/05 12:48:57;;;;;;;21.23;10.10;;;7.60;99.90;;;;;;5117110;28;20352;-75
2022/12/05 12:51:22;;;;;;;15.65;10.05;;;7.60;99.90;;;;;;5118355;28;20036;-72
2022/12/05 12:54:22;;;;;;;13.07;9.60;;;7.60;99.90;;;;;;5117760;28;20035;-72
2022/12/05 12:56:55;;;;;;;18.77;9.85;;;7.50;99.90;;;;;;5117991;28;20309;-73
2022/12/05 12:59:33;;;;;;;16.20;9.43;;;7.60;99.90;;;;;;5130059;27;20035;-72
2022/12/05 13:02:02;;;;;;;13.35;8.48;;;7.60;99.90;;;;;;5137422;27;20050;-69
2022/12/05 13:04:57;;;;;;;17.35;9.05;;;7.60;99.90;;;;;;5119810;27;20050;-69
2022/12/05 13:07:44;;;;;;;19.02;9.70;;;7.80;99.90;;;;;;5120447;27;20102;-69
2022/12/05 13:10:39;;;;;;;14.18;8.65;;;7.80;99.90;;;;;;5138478;27;20109;-73